Time;durP1;ratioP1;P1;durP2;ratioP2;P2;SDS_P1;SDS_P2;PMS_P1;PMS_P2;Temp;Humidity;BMP_temperature;BMP_pressure;BME280_temperature;BME280_humidity;BME280_pressure;Samples;Min_cycle;Max_cycle;Signal;HPM_P1;HPM_P2
2023/06/09 00:00:21;;;;;;;2.70;2.50;;;19.40;94.10;;;19.76;61.50;94770.09;5052847;28;20533;-60
2023/06/09 00:02:50;;;;;;;3.30;2.90;;;19.30;94.20;;;19.73;61.57;94770.50;5053771;28;20467;-60
2023/06/09 00:05:18;;;;;;;3.43;2.70;;;19.40;94.40;;;19.71;61.80;94774.19;5048524;28;20475;-59
2023/06/09 00:07:47;;;;;;;5.97;3.30;;;19.30;94.40;;;19.68;61.89;94771.09;5055905;28;20568;-68
2023/06/09 00:10:17;;;;;;;4.83;2.83;;;19.30;94.60;;;19.66;62.03;94775.81;5057995;28;20463;-67
2023/06/09 00:12:44;;;;;;;3.70;3.33;;;19.20;94.70;;;19.64;61.97;94773.34;5048858;28;20541;-60
2023/06/09 00:15:12;;;;;;;2.80;2.60;;;19.20;94.70;;;19.62;62.20;94770.03;5056461;28;20468;-67
2023/06/09 00:17:40;;;;;;;4.27;3.00;;;19.20;94.80;;;19.61;61.63;94772.91;5049945;28;20495;-67
2023/06/09 00:20:09;;;;;;;7.63;3.57;;;19.20;94.80;;;19.57;61.91;94777.00;5058240;28;20585;-67
2023/06/09 00:22:42;;;;;;;3.53;2.30;;;19.20;94.90;;;19.53;61.95;94769.41;5054879;28;20463;-67
2023/06/09 00:25:11;;;;;;;3.90;2.90;;;19.10;95.00;;;19.50;62.68;94774.28;5051665;28;20482;-59
2023/06/09 00:27:40;;;;;;;2.87;2.67;;;19.10;95.10;;;19.48;62.15;94773.66;5052718;28;20463;-60
2023/06/09 00:30:09;;;;;;;7.63;3.00;;;19.10;95.20;;;19.45;62.42;94776.72;5051991;28;20487;-60
2023/06/09 00:32:36;;;;;;;4.33;2.80;;;19.10;95.30;;;19.40;62.38;94768.50;5047845;28;20451;-68
2023/06/09 00:35:04;;;;;;;3.33;2.90;;;19.00;95.30;;;19.39;62.12;94769.50;5053942;28;20486;-68
2023/06/09 00:37:32;;;;;;;6.73;2.93;;;19.00;95.20;;;19.35;62.74;94766.44;5051319;28;20663;-59
2023/06/09 00:40:00;;;;;;;3.27;2.73;;;19.00;95.40;;;19.32;62.50;94769.50;5048422;28;20490;-60
2023/06/09 00:42:27;;;;;;;2.57;2.40;;;18.90;95.50;;;19.28;63.12;94773.56;5051398;28;20463;-60
2023/06/09 00:44:56;;;;;;;5.00;2.80;;;18.90;95.60;;;19.24;62.74;94764.28;5053435;28;21061;-59
2023/06/09 00:47:23;;;;;;;3.03;2.83;;;18.80;95.70;;;19.19;63.26;94764.88;5049408;28;20455;-67
2023/06/09 00:49:51;;;;;;;4.50;2.90;;;18.80;95.80;;;19.16;62.98;94770.59;5059077;28;20561;-68
2023/06/09 00:52:18;;;;;;;5.50;3.10;;;18.80;96.00;;;19.11;63.04;94765.84;5051905;28;20728;-60
2023/06/09 00:54:45;;;;;;;3.10;2.90;;;18.70;96.00;;;19.07;63.04;94766.44;5051318;28;20631;-60
2023/06/09 00:57:13;;;;;;;2.67;2.47;;;18.70;96.10;;;19.06;63.17;94770.16;5051370;28;20516;-60
2023/06/09 00:59:40;;;;;;;3.00;2.70;;;18.70;96.30;;;19.02;63.47;94766.22;5047705;28;20482;-69
2023/06/09 01:02:12;;;;;;;4.93;3.33;;;18.60;96.40;;;18.98;63.79;94766.59;5048259;28;20987;-68
2023/06/09 01:04:40;;;;;;;3.70;3.40;;;18.60;96.60;;;18.95;63.39;94766.16;5052252;28;20471;-66
2023/06/09 01:07:20;;;;;;;9.33;3.43;;;18.60;96.50;;;18.92;63.53;94763.91;5048882;28;20538;-68
2023/06/09 01:09:52;;;;;;;3.00;2.80;;;18.50;96.60;;;18.88;63.47;94762.63;5054364;28;20475;-59
2023/06/09 01:12:25;;;;;;;2.80;2.60;;;18.50;96.80;;;18.84;63.74;94758.66;5046564;28;20521;-58
2023/06/09 01:14:57;;;;;;;11.73;2.90;;;18.50;97.00;;;18.80;63.50;94752.91;5052650;28;20479;-66
2023/06/09 01:17:25;;;;;;;3.60;3.30;;;18.40;96.80;;;18.77;63.47;94761.28;5053740;28;20455;-66
2023/06/09 01:19:57;;;;;;;8.73;3.63;;;18.40;96.60;;;18.73;63.83;94760.00;5049028;28;20944;-59
2023/06/09 01:22:29;;;;;;;4.80;3.23;;;18.40;96.80;;;18.71;63.81;94762.88;5052443;28;20462;-59
2023/06/09 01:25:06;;;;;;;6.50;2.60;;;18.30;96.60;;;18.70;63.46;94763.06;5054978;28;20913;-67
2023/06/09 01:27:36;;;;;;;2.83;2.60;;;18.40;96.90;;;18.70;63.40;94763.06;5054672;28;20887;-66
2023/06/09 01:30:04;;;;;;;4.90;2.57;;;18.30;97.00;;;18.69;63.32;94767.56;5056081;28;20479;-59
2023/06/09 01:32:31;;;;;;;3.37;3.10;;;18.30;96.90;;;18.69;63.79;94772.09;5046367;28;20990;-66
2023/06/09 01:34:59;;;;;;;12.47;3.07;;;18.30;96.90;;;18.68;63.55;94781.91;5046976;28;20862;-59
2023/06/09 01:37:26;;;;;;;7.53;3.00;;;18.30;96.70;;;18.68;63.80;94773.91;5052969;28;20574;-66
2023/06/09 01:39:53;;;;;;;3.63;3.43;;;18.30;96.90;;;18.69;63.39;94780.09;5050291;28;20476;-59
2023/06/09 01:42:20;;;;;;;5.60;3.90;;;18.30;97.00;;;18.68;63.48;94773.09;5049815;28;21226;-59
2023/06/09 01:44:49;;;;;;;7.90;3.47;;;18.30;97.10;;;18.67;64.40;94779.44;5046019;28;20558;-66
2023/06/09 01:47:18;;;;;;;4.10;2.80;;;18.30;97.50;;;18.66;63.79;94780.47;5044973;28;20656;-60
2023/06/09 01:49:53;;;;;;;3.67;3.03;;;18.30;97.50;;;18.64;64.15;94781.47;5054412;28;20532;-67
2023/06/09 01:52:22;;;;;;;5.47;3.63;;;18.20;97.50;;;18.62;64.53;94775.53;5044434;28;20983;-66
2023/06/09 01:54:55;;;;;;;3.53;3.23;;;18.20;97.70;;;18.61;64.22;94776.53;5051692;28;20472;-65
2023/06/09 01:57:28;;;;;;;4.90;3.97;;;18.20;97.70;;;18.60;64.53;94777.53;5050666;28;20459;-59
2023/06/09 02:00:00;;;;;;;3.80;3.50;;;18.20;98.00;;;18.57;63.75;94775.25;5047719;28;21024;-66
2023/06/09 02:02:29;;;;;;;3.93;3.20;;;18.20;97.60;;;18.57;63.75;94777.91;5052707;28;20456;-61
2023/06/09 02:04:56;;;;;;;8.53;3.53;;;18.20;97.60;;;18.56;63.61;94773.63;5054812;28;20484;-66
2023/06/09 02:07:23;;;;;;;4.87;3.53;;;18.20;97.10;;;18.53;62.98;94776.66;5047302;28;20452;-60
2023/06/09 02:09:51;;;;;;;2.80;2.60;;;18.20;96.70;;;18.51;62.05;94767.22;5050915;28;20542;-59
2023/06/09 02:12:18;;;;;;;3.50;3.20;;;18.10;96.20;;;18.49;61.77;94770.06;5053646;28;20529;-59
2023/06/09 02:14:45;;;;;;;4.50;3.07;;;18.10;95.70;;;18.47;61.38;94758.78;5050140;28;20968;-59
2023/06/09 02:17:15;;;;;;;3.80;2.77;;;18.10;95.20;;;18.44;60.90;94769.81;5049728;28;21038;-60
2023/06/09 02:19:45;;;;;;;3.23;2.70;;;18.10;95.10;;;18.40;60.37;94771.22;5044474;28;20583;-67
2023/06/09 02:22:12;;;;;;;4.63;2.70;;;18.00;94.40;;;18.35;60.39;94774.44;5048651;28;20452;-61
2023/06/09 02:24:40;;;;;;;4.83;3.40;;;18.00;94.30;;;18.32;59.62;94772.16;5056928;28;20477;-59
2023/06/09 02:27:08;;;;;;;8.93;3.27;;;18.00;94.20;;;18.30;60.07;94776.06;5049121;28;20925;-66
2023/06/09 02:29:35;;;;;;;7.97;2.67;;;17.90;94.10;;;18.26;59.43;94773.78;5054085;28;20536;-66
2023/06/09 02:32:03;;;;;;;4.47;3.00;;;17.90;94.00;;;18.24;59.95;94769.63;5051286;28;20452;-60
2023/06/09 02:34:32;;;;;;;2.20;2.07;;;17.90;94.00;;;18.20;59.55;94774.53;5049666;28;20543;-66
2023/06/09 02:37:00;;;;;;;17.77;3.00;;;17.90;93.90;;;18.16;59.52;94775.91;5050256;28;20486;-66
2023/06/09 02:39:28;;;;;;;3.63;3.23;;;17.90;93.80;;;18.13;59.86;94775.47;5050079;28;20492;-60
2023/06/09 02:41:55;;;;;;;3.80;3.50;;;17.80;93.80;;;18.10;59.25;94771.34;5047299;28;20594;-60
2023/06/09 02:44:22;;;;;;;6.97;2.80;;;17.80;93.70;;;18.07;59.68;94771.72;5053092;28;20676;-65
2023/06/09 02:46:50;;;;;;;4.97;3.00;;;17.70;93.60;;;18.02;58.86;94780.25;5050608;28;20984;-67
2023/06/09 02:49:17;;;;;;;3.67;3.07;;;17.70;93.50;;;17.97;59.15;94776.50;5053188;28;21089;-67
2023/06/09 02:51:46;;;;;;;3.50;3.20;;;17.70;93.50;;;17.90;59.16;94779.91;5050039;28;20527;-61
2023/06/09 02:54:13;;;;;;;3.27;2.70;;;17.60;93.40;;;17.86;59.50;94781.28;5046041;28;20922;-61
2023/06/09 02:56:40;;;;;;;2.83;2.53;;;17.60;93.40;;;17.86;59.75;94785.75;5049792;28;20462;-67
2023/06/09 02:59:07;;;;;;;7.00;3.07;;;17.60;93.50;;;17.85;59.57;94781.47;5054451;28;20557;-59
2023/06/09 03:01:36;;;;;;;4.07;3.10;;;17.50;93.40;;;17.85;59.46;94784.94;5049663;28;20516;-59
2023/06/09 03:04:06;;;;;;;10.03;3.30;;;17.50;93.40;;;17.85;58.90;94779.63;5046746;28;20488;-61
2023/06/09 03:06:34;;;;;;;2.90;2.70;;;17.50;93.40;;;17.84;59.34;94775.31;5053390;28;20462;-67
2023/06/09 03:09:03;;;;;;;4.30;3.37;;;17.50;93.40;;;17.85;59.40;94779.63;5051922;28;20486;-60
2023/06/09 03:11:31;;;;;;;3.30;3.00;;;17.50;93.40;;;17.86;59.29;94781.28;5051809;28;20480;-68
2023/06/09 03:13:58;;;;;;;3.63;3.33;;;17.50;93.30;;;17.83;58.82;94771.03;5052735;28;20478;-67
2023/06/09 03:16:27;;;;;;;7.50;3.53;;;17.60;93.30;;;17.82;59.29;94773.88;5054841;28;20462;-60
2023/06/09 03:18:54;;;;;;;4.27;3.33;;;17.50;93.30;;;17.82;59.43;94780.00;5053913;28;20491;-67
2023/06/09 03:21:24;;;;;;;13.90;3.97;;;17.50;93.30;;;17.84;59.64;94779.81;5055212;28;20577;-67
2023/06/09 03:23:51;;;;;;;5.53;3.47;;;17.50;93.40;;;17.88;59.51;94778.44;5050505;28;20467;-65
2023/06/09 03:26:20;;;;;;;5.57;3.90;;;17.50;93.40;;;17.91;58.78;94778.91;5058072;28;21018;-58
2023/06/09 03:28:47;;;;;;;16.57;4.67;;;17.60;93.30;;;17.95;59.50;94776.69;5049177;28;20888;-67
2023/06/09 03:31:14;;;;;;;27.03;5.47;;;17.60;93.50;;;17.99;59.26;94769.19;5049915;28;20809;-60
2023/06/09 03:33:42;;;;;;;7.50;3.43;;;17.60;93.70;;;18.02;59.90;94768.81;5048582;28;20479;-67
2023/06/09 03:36:09;;;;;;;5.00;3.50;;;17.60;93.80;;;18.04;58.97;94769.44;5051113;28;20933;-59
2023/06/09 03:38:37;;;;;;;10.40;3.53;;;17.70;93.60;;;18.03;58.76;94770.44;5054877;28;21034;-60
2023/06/09 03:41:04;;;;;;;35.00;5.43;;;17.70;93.40;;;18.05;59.76;94776.41;5049816;28;20467;-67
2023/06/09 03:43:33;;;;;;;27.90;5.80;;;17.70;93.70;;;18.06;59.63;94776.22;5050260;28;20466;-59
2023/06/09 03:46:00;;;;;;;47.90;6.63;;;17.70;94.00;;;18.10;59.79;94784.66;5050781;28;20473;-60
2023/06/09 03:48:28;;;;;;;7.70;3.90;;;17.70;94.30;;;18.11;60.98;94783.66;5050885;28;20566;-58
2023/06/09 03:50:55;;;;;;;6.87;4.17;;;17.80;94.80;;;18.14;61.81;94782.41;5054104;28;20440;-59
2023/06/09 03:53:23;;;;;;;19.03;4.73;;;17.70;95.50;;;18.17;61.30;94782.03;5049739;28;20455;-60
2023/06/09 03:55:50;;;;;;;16.97;4.57;;;17.80;95.50;;;18.18;62.13;94779.19;5052460;28;20518;-61
2023/06/09 03:58:17;;;;;;;9.33;4.67;;;17.80;95.90;;;18.18;61.96;94784.50;5052765;28;20446;-67
2023/06/09 04:00:47;;;;;;;10.20;4.83;;;17.80;96.10;;;18.18;62.46;94789.84;5052457;28;20472;-65
2023/06/09 04:03:14;;;;;;;9.87;4.20;;;17.80;96.40;;;18.18;62.65;94791.69;5049607;28;20482;-65
2023/06/09 04:05:41;;;;;;;7.43;4.30;;;17.80;96.40;;;18.19;62.97;94788.03;5048978;28;20571;-60
2023/06/09 04:08:09;;;;;;;9.20;4.47;;;17.80;96.50;;;18.19;63.26;94780.84;5048469;28;20467;-59
2023/06/09 04:10:36;;;;;;;3.87;3.57;;;17.80;96.70;;;18.20;62.97;94782.50;5050664;28;20479;-60
2023/06/09 04:13:03;;;;;;;7.50;4.70;;;17.90;96.60;;;18.20;63.03;94781.66;5050778;28;20460;-67
2023/06/09 04:15:31;;;;;;;6.53;4.90;;;17.80;96.60;;;18.20;63.02;94793.16;5046809;28;20480;-66
2023/06/09 04:18:01;;;;;;;8.10;4.60;;;17.90;97.00;;;18.21;63.15;94789.47;5053160;28;20577;-61
2023/06/09 04:20:29;;;;;;;10.87;4.07;;;17.80;96.90;;;18.24;62.83;94799.75;5053434;28;20507;-68
2023/06/09 04:22:56;;;;;;;15.13;6.67;;;17.80;97.00;;;18.31;62.92;94798.97;5051168;28;20455;-60
2023/06/09 04:25:25;;;;;;;9.20;6.33;;;17.90;97.40;;;18.37;62.84;94795.56;5049138;28;20554;-65
2023/06/09 04:27:53;;;;;;;9.70;7.20;;;18.00;97.20;;;18.43;63.36;94798.31;5050996;28;20488;-66
2023/06/09 04:30:24;;;;;;;10.27;8.40;;;18.00;97.40;;;18.51;63.96;94800.00;5051916;28;21015;-61
2023/06/09 04:32:53;;;;;;;10.50;4.67;;;18.10;97.70;;;18.62;63.55;94806.66;5050494;28;20536;-59
2023/06/09 04:35:22;;;;;;;18.37;5.40;;;18.20;97.50;;;18.70;62.73;94808.34;5048707;28;20553;-66
2023/06/09 04:37:50;;;;;;;23.57;10.20;;;18.30;97.40;;;18.77;62.85;94810.06;5050284;28;20456;-62
2023/06/09 04:40:22;;;;;;;16.57;7.37;;;18.30;97.40;;;18.86;63.23;94817.97;5050531;28;20576;-60
2023/06/09 04:42:51;;;;;;;13.30;6.60;;;18.40;97.50;;;18.96;63.26;94810.44;5054639;28;21029;-60
2023/06/09 04:45:20;;;;;;;19.37;6.80;;;18.50;97.50;;;19.04;62.42;94815.66;5047636;28;20476;-59
2023/06/09 04:47:48;;;;;;;12.63;5.93;;;18.60;97.40;;;19.10;62.04;94816.69;5051041;28;20488;-60
2023/06/09 04:50:16;;;;;;;6.10;4.97;;;18.60;96.80;;;19.09;62.03;94812.41;5055386;28;20471;-61
2023/06/09 04:52:45;;;;;;;6.33;4.80;;;18.70;96.60;;;19.10;61.55;94816.69;5053877;28;20531;-70
2023/06/09 04:55:13;;;;;;;12.60;4.93;;;18.70;96.40;;;19.09;61.33;94820.41;5051603;28;20472;-59
2023/06/09 04:57:40;;;;;;;15.40;5.33;;;18.70;96.30;;;19.08;61.65;94822.22;5052830;28;20490;-68
2023/06/09 05:00:12;;;;;;;7.90;5.47;;;18.70;96.40;;;19.09;61.79;94812.41;5052334;28;20545;-61
2023/06/09 05:02:41;;;;;;;27.43;5.10;;;18.70;96.30;;;19.08;61.31;94818.75;5053007;28;20448;-70
2023/06/09 05:05:09;;;;;;;9.20;4.70;;;18.70;96.00;;;19.05;61.27;94811.94;5052727;28;20978;-69
2023/06/09 05:07:38;;;;;;;8.63;4.57;;;18.70;95.80;;;19.06;61.29;94813.59;5050507;28;20965;-67
2023/06/09 05:10:09;;;;;;;9.87;4.60;;;18.70;95.70;;;19.10;61.26;94814.03;5053910;28;20471;-69
2023/06/09 05:12:36;;;;;;;7.10;5.10;;;18.70;95.80;;;19.16;61.14;94805.25;5049562;28;20496;-69
2023/06/09 05:15:04;;;;;;;11.13;5.83;;;18.70;95.70;;;19.24;60.62;94810.47;5050139;28;20474;-70
2023/06/09 05:17:33;;;;;;;14.80;5.13;;;18.80;95.60;;;19.34;60.36;94807.44;5049850;28;20452;-60
2023/06/09 05:20:00;;;;;;;21.27;5.50;;;18.90;95.60;;;19.48;60.35;94808.34;5053325;28;20979;-60
2023/06/09 05:22:27;;;;;;;12.53;6.03;;;19.00;95.60;;;19.64;60.27;94810.69;5050343;28;20539;-58
2023/06/09 05:24:54;;;;;;;7.23;5.10;;;19.20;95.50;;;19.82;59.50;94807.53;5059403;28;20463;-60
2023/06/09 05:27:23;;;;;;;8.33;5.13;;;19.30;95.20;;;20.00;59.16;94815.00;5050813;28;20546;-60
2023/06/09 05:29:50;;;;;;;10.53;5.33;;;19.50;94.90;;;20.21;58.41;94815.88;5049644;28;20471;-69
2023/06/09 05:32:18;;;;;;;12.60;5.33;;;19.70;94.70;;;20.44;58.37;94809.38;5049414;28;20474;-59
2023/06/09 05:34:45;;;;;;;12.53;5.33;;;19.90;94.60;;;20.69;57.92;94807.78;5052674;28;20509;-67
2023/06/09 05:37:13;;;;;;;12.57;4.93;;;20.10;94.20;;;20.90;57.35;94804.09;5050573;28;20452;-68
2023/06/09 05:39:40;;;;;;;8.90;4.73;;;20.30;93.70;;;21.10;56.67;94795.22;5050305;28;20526;-61
2023/06/09 05:42:09;;;;;;;13.00;5.83;;;20.50;93.40;;;21.25;55.95;94795.81;5048827;28;20553;-60
2023/06/09 05:44:38;;;;;;;15.47;5.10;;;20.70;92.90;;;21.41;55.81;94794.59;5055077;28;20467;-60
2023/06/09 05:47:06;;;;;;;15.20;5.23;;;20.90;92.60;;;21.62;55.42;94790.03;5048933;28;20956;-68
2023/06/09 05:49:34;;;;;;;10.37;5.33;;;21.00;92.20;;;21.82;54.56;94788.09;5055709;28;20463;-59
2023/06/09 05:52:01;;;;;;;11.83;5.70;;;21.30;91.80;;;22.05;54.49;94784.09;5053206;28;20464;-60
2023/06/09 05:54:29;;;;;;;8.33;5.00;;;21.40;91.70;;;22.22;53.68;94783.63;5052175;28;20990;-60
2023/06/09 05:56:56;;;;;;;8.20;5.40;;;21.70;91.20;;;22.43;53.68;94780.59;5052698;28;20533;-61
2023/06/09 05:59:23;;;;;;;15.30;5.67;;;21.80;91.00;;;22.63;53.64;94780.47;5051070;28;20555;-60
2023/06/09 06:01:52;;;;;;;13.93;4.97;;;22.00;90.80;;;22.84;52.87;94787.34;5051094;28;20498;-68
2023/06/09 06:04:19;;;;;;;16.97;5.00;;;22.20;90.50;;;23.03;52.77;94779.34;5051239;28;20481;-69
2023/06/09 06:06:47;;;;;;;5.70;5.00;;;22.40;90.30;;;23.20;51.93;94780.47;5051812;28;20460;-68
2023/06/09 06:09:14;;;;;;;19.53;4.90;;;22.60;90.00;;;23.37;52.13;94779.91;5054008;28;20478;-68
2023/06/09 06:11:41;;;;;;;8.23;4.97;;;22.80;89.10;;;23.56;51.80;94781.56;5048523;28;20456;-68
2023/06/09 06:14:08;;;;;;;8.90;5.03;;;22.90;88.80;;;23.73;50.48;94780.97;5053536;28;20471;-59
2023/06/09 06:16:36;;;;;;;14.73;5.50;;;23.10;87.30;;;23.83;50.55;94777.72;5048157;28;20478;-68
2023/06/09 06:19:05;;;;;;;6.87;5.13;;;23.20;86.10;;;23.94;49.60;94788.59;5049115;28;20462;-66
2023/06/09 06:21:32;;;;;;;13.37;5.67;;;23.40;85.90;;;24.12;49.64;94786.91;5048169;28;20532;-60
2023/06/09 06:24:00;;;;;;;11.53;6.13;;;23.50;85.20;;;24.34;48.85;94790.78;5054291;28;20478;-60
2023/06/09 06:26:27;;;;;;;10.93;5.53;;;23.70;84.30;;;24.55;49.01;94791.31;5052834;28;20455;-69
2023/06/09 06:28:54;;;;;;;10.97;5.50;;;23.90;83.90;;;24.76;48.33;94781.94;5052871;28;21003;-69
2023/06/09 06:31:21;;;;;;;11.23;5.00;;;24.10;83.10;;;24.96;47.88;94781.63;5049986;28;20570;-68
2023/06/09 06:33:49;;;;;;;9.40;6.13;;;24.30;82.20;;;25.14;47.86;94783.38;5051707;28;20471;-68
2023/06/09 06:36:21;;;;;;;11.97;5.40;;;24.40;82.20;;;25.31;46.75;94780.84;5047835;28;20455;-69
2023/06/09 06:38:48;;;;;;;9.00;4.60;;;24.60;80.40;;;25.45;46.29;94780.59;5050957;28;20471;-60
2023/06/09 06:41:15;;;;;;;11.00;6.30;;;24.80;79.30;;;25.56;46.42;94777.06;5055442;28;20490;-60
2023/06/09 06:43:43;;;;;;;6.97;5.10;;;24.90;78.50;;;25.63;45.93;94771.59;5053765;28;20893;-59
2023/06/09 06:46:11;;;;;;;16.90;5.40;;;25.00;78.60;;;25.67;46.38;94770.88;5062091;28;20455;-60
2023/06/09 06:48:40;;;;;;;10.53;4.87;;;25.00;78.60;;;25.68;46.00;94783.28;5054048;28;20483;-69
2023/06/09 06:51:07;;;;;;;15.03;5.40;;;25.10;77.70;;;25.76;46.03;94768.63;5055792;28;20538;-61
2023/06/09 06:53:37;;;;;;;11.93;5.60;;;25.10;78.10;;;25.88;45.79;94782.88;5052988;28;20451;-60
2023/06/09 06:56:05;;;;;;;7.43;5.30;;;25.20;77.50;;;25.96;45.72;94779.00;5053643;28;20450;-70
2023/06/09 06:58:33;;;;;;;11.30;5.80;;;25.30;76.70;;;26.05;45.52;94772.19;5053905;28;20455;-69
2023/06/09 07:01:00;;;;;;;8.70;5.20;;;25.40;76.70;;;26.21;45.15;94778.75;5054343;28;20563;-60
2023/06/09 07:03:27;;;;;;;24.47;5.50;;;25.50;76.30;;;26.41;45.10;94774.78;5052880;28;20579;-61
2023/06/09 07:05:55;;;;;;;10.20;5.20;;;25.70;75.80;;;26.64;44.67;94773.84;5054400;28;20569;-61
2023/06/09 07:08:22;;;;;;;13.43;4.60;;;25.90;75.00;;;26.83;44.13;94772.59;5055040;28;20478;-66
2023/06/09 07:10:51;;;;;;;5.43;4.47;;;26.10;74.20;;;27.00;43.91;94782.56;5057905;28;20945;-68
2023/06/09 07:13:18;;;;;;;16.70;6.27;;;26.30;73.60;;;27.02;43.59;94767.78;5049209;28;21163;-70
2023/06/09 07:15:45;;;;;;;9.73;5.77;;;26.30;72.80;;;27.12;43.59;94769.81;5057273;28;20516;-70
2023/06/09 07:18:13;;;;;;;10.70;5.80;;;26.40;73.00;;;27.24;43.33;94766.22;5054238;28;20466;-68
2023/06/09 07:20:40;;;;;;;12.50;5.63;;;26.50;73.00;;;27.35;43.58;94768.03;5056145;28;20494;-60
2023/06/09 07:23:07;;;;;;;8.10;4.60;;;26.60;72.70;;;27.48;43.42;94770.41;5051308;28;20450;-59
2023/06/09 07:25:34;;;;;;;14.43;5.20;;;26.80;72.20;;;27.54;43.27;94769.41;5062191;28;20494;-69
2023/06/09 07:28:03;;;;;;;5.80;5.17;;;26.80;71.30;;;27.58;43.21;94769.72;5051372;28;20448;-69
2023/06/09 07:30:30;;;;;;;9.10;4.80;;;26.90;71.10;;;27.67;42.42;94770.06;5051881;28;20481;-69
2023/06/09 07:32:58;;;;;;;10.97;5.43;;;26.90;70.80;;;27.68;42.74;94763.63;5050047;28;20481;-61
2023/06/09 07:35:26;;;;;;;7.90;4.80;;;27.00;70.10;;;27.67;42.25;94764.69;5049262;28;20475;-68
2023/06/09 07:37:53;;;;;;;10.57;5.20;;;27.00;69.50;;;27.68;42.37;94758.22;5054175;28;20453;-69
2023/06/09 07:40:21;;;;;;;13.23;6.40;;;27.00;69.80;;;27.80;42.84;94758.09;5054121;28;20490;-61
2023/06/09 07:42:49;;;;;;;22.93;5.70;;;27.00;70.10;;;27.87;42.03;94754.16;5055811;28;20526;-60
2023/06/09 07:45:18;;;;;;;10.43;5.40;;;27.20;69.30;;;27.95;42.20;94762.88;5054587;28;20730;-69
2023/06/09 07:47:45;;;;;;;10.30;5.83;;;27.20;69.30;;;28.10;42.18;94751.47;5054018;28;20455;-61
2023/06/09 07:50:12;;;;;;;8.63;4.97;;;27.30;69.20;;;28.32;41.73;94749.56;5054183;28;20463;-68
2023/06/09 07:52:40;;;;;;;7.33;5.10;;;27.50;69.40;;;28.55;41.67;94753.84;5055169;28;21347;-59
2023/06/09 07:55:08;;;;;;;10.20;4.57;;;27.80;68.70;;;28.61;41.47;94752.88;5052902;28;20570;-59
2023/06/09 07:57:35;;;;;;;6.47;3.73;;;27.90;67.50;;;28.63;40.88;94751.78;5052851;28;20462;-60
2023/06/09 08:00:05;;;;;;;9.73;4.57;;;27.90;66.60;;;28.67;40.94;94748.28;5050688;28;20499;-61
2023/06/09 08:02:35;;;;;;;4.13;3.73;;;28.00;66.00;;;28.71;40.04;94746.72;5056055;28;20509;-68
2023/06/09 08:05:02;;;;;;;8.27;5.30;;;28.00;66.40;;;28.82;40.44;94746.81;5049828;28;20503;-66
2023/06/09 08:07:30;;;;;;;7.63;4.80;;;28.10;65.80;;;29.04;41.20;94749.44;5057051;28;20489;-62
2023/06/09 08:09:57;;;;;;;15.70;5.43;;;28.30;66.70;;;29.33;40.08;94752.66;5050560;28;20479;-70
2023/06/09 08:12:25;;;;;;;10.60;6.40;;;28.50;66.00;;;29.61;40.20;94748.75;5052625;28;20530;-61
2023/06/09 08:14:52;;;;;;;14.87;5.33;;;28.80;66.00;;;29.92;40.50;94740.81;5055563;28;20542;-69
2023/06/09 08:17:19;;;;;;;14.10;4.93;;;29.10;65.30;;;30.24;39.32;94745.28;5052994;28;20511;-61
2023/06/09 08:19:48;;;;;;;18.67;5.10;;;29.40;64.80;;;30.45;38.19;94743.44;5053102;28;20471;-68
2023/06/09 08:22:15;;;;;;;21.90;5.87;;;29.70;63.20;;;30.63;38.97;94752.97;5052722;28;20208;-68
2023/06/09 08:24:42;;;;;;;11.33;4.17;;;29.90;63.60;;;30.79;38.41;94739.41;5054720;28;20466;-60
2023/06/09 08:27:10;;;;;;;13.03;5.87;;;30.00;62.90;;;30.86;38.26;94737.22;5052543;28;20208;-61
2023/06/09 08:29:37;;;;;;;7.50;4.50;;;30.20;61.80;;;30.76;38.34;94735.34;5049510;28;20615;-60
2023/06/09 08:32:06;;;;;;;20.20;4.83;;;30.20;60.40;;;30.71;37.76;94736.16;5050794;28;20205;-60
2023/06/09 08:34:33;;;;;;;7.87;4.43;;;30.10;61.00;;;30.86;37.94;94734.50;5054098;28;20279;-60
2023/06/09 08:37:03;;;;;;;13.73;4.33;;;30.20;61.00;;;31.07;38.54;94732.66;5046165;28;20201;-67
2023/06/09 08:39:30;;;;;;;17.87;4.80;;;30.30;61.10;;;31.30;37.99;94725.84;5054089;28;20741;-68
2023/06/09 08:41:58;;;;;;;11.20;3.87;;;30.60;60.60;;;31.59;37.59;94728.00;5050559;28;20282;-61
2023/06/09 08:44:26;;;;;;;9.97;5.80;;;30.80;60.70;;;31.86;37.30;94734.97;5054157;28;20327;-61
2023/06/09 08:46:54;;;;;;;19.17;5.77;;;31.10;60.00;;;32.07;37.03;94736.53;5056766;28;20283;-60
2023/06/09 08:49:21;;;;;;;11.13;5.20;;;31.30;59.10;;;32.00;36.17;94727.84;5050888;28;20216;-61
2023/06/09 08:51:48;;;;;;;6.57;4.90;;;31.30;57.20;;;31.80;36.19;94726.81;5054083;28;20618;-60
2023/06/09 08:54:17;;;;;;;9.15;4.95;;;31.20;57.20;;;31.82;36.33;94723.81;5051171;28;20225;-67
2023/06/09 08:56:47;;;;;;;8.10;4.67;;;31.10;57.90;;;31.98;36.52;94721.88;5052575;28;20280;-68
2023/06/09 08:59:14;;;;;;;7.53;4.93;;;31.20;58.20;;;32.23;36.54;94720.16;5052485;28;20220;-60
2023/06/09 09:01:42;;;;;;;7.72;4.60;;;31.40;58.10;;;32.46;36.37;94719.47;5051945;28;20680;-60
2023/06/09 09:04:09;;;;;;;7.88;4.90;;;31.70;58.10;;;32.62;36.26;94711.19;5053530;28;20755;-59
2023/06/09 09:06:37;;;;;;;16.98;4.80;;;31.90;57.60;;;32.58;35.81;94710.13;5051356;28;20205;-68
2023/06/09 09:09:04;;;;;;;11.90;4.88;;;31.90;57.00;;;32.58;35.95;94710.13;5051210;28;20728;-67
2023/06/09 09:11:33;;;;;;;12.90;5.15;;;31.90;57.30;;;32.68;36.02;94707.38;5053289;28;20216;-59
2023/06/09 09:14:11;;;;;;;5.97;4.20;;;31.90;56.90;;;32.82;35.48;94700.19;5049869;28;20225;-60
2023/06/09 09:16:39;;;;;;;10.23;5.88;;;32.00;56.90;;;33.00;35.55;94703.28;5045954;28;20204;-67
2023/06/09 09:19:06;;;;;;;22.02;5.05;;;32.20;56.60;;;33.18;34.94;94699.06;5048660;28;20251;-61
2023/06/09 09:21:37;;;;;;;5.10;4.13;;;32.40;55.80;;;33.34;34.86;94694.28;5049779;28;20200;-60
2023/06/09 09:24:06;;;;;;;12.82;5.00;;;32.60;55.60;;;33.48;34.78;94687.06;5048439;28;20783;-60
2023/06/09 09:26:35;;;;;;;9.48;4.97;;;32.70;55.40;;;33.58;34.71;94689.66;5051551;28;20208;-68
2023/06/09 09:29:05;;;;;;;12.38;4.40;;;32.80;55.00;;;33.60;34.25;94683.91;5050142;28;20224;-68
2023/06/09 09:31:33;;;;;;;6.47;4.68;;;32.90;54.20;;;33.45;33.65;94684.91;5049435;28;20262;-68
2023/06/09 09:34:01;;;;;;;9.88;4.13;;;32.80;53.60;;;33.39;33.80;94686.06;5051948;28;20314;-61
2023/06/09 09:36:28;;;;;;;5.38;4.10;;;32.80;53.50;;;33.32;33.59;94669.22;5049575;28;20732;-69
2023/06/09 09:39:05;;;;;;;9.88;3.95;;;32.70;53.40;;;33.21;33.87;94677.50;5056635;28;20345;-60
2023/06/09 09:41:34;;;;;;;8.02;4.55;;;32.60;53.20;;;33.21;33.71;94679.44;5055019;28;20234;-60
2023/06/09 09:44:02;;;;;;;13.65;5.05;;;32.50;53.00;;;33.26;32.76;94679.38;5048827;28;20229;-69
2023/06/09 09:46:36;;;;;;;11.30;4.53;;;32.60;52.40;;;33.30;32.91;94679.63;5054746;28;20199;-68
2023/06/09 09:49:05;;;;;;;16.17;4.68;;;32.60;53.10;;;33.33;33.80;94668.94;5052036;28;20318;-67
2023/06/09 09:51:33;;;;;;;18.27;4.82;;;32.70;52.70;;;33.40;33.25;94668.59;5048190;28;20239;-60
2023/06/09 09:54:01;;;;;;;8.65;5.03;;;32.70;52.50;;;33.44;33.51;94672.38;5051081;28;20228;-59
2023/06/09 09:56:28;;;;;;;9.85;4.55;;;32.70;52.40;;;33.48;33.75;94654.34;5053016;28;20208;-68
2023/06/09 09:58:57;;;;;;;14.45;5.00;;;32.80;52.60;;;33.61;33.33;94663.72;5053415;28;20248;-60
2023/06/09 10:01:25;;;;;;;25.17;5.22;;;32.90;52.60;;;33.70;34.15;94666.63;5049380;28;20274;-67
2023/06/09 10:03:53;;;;;;;10.13;4.68;;;33.00;52.70;;;33.72;33.88;94664.44;5052232;28;20277;-69
2023/06/09 10:06:22;;;;;;;10.10;4.22;;;33.00;52.70;;;33.74;33.62;94667.69;5044566;28;20308;-61
2023/06/09 10:08:49;;;;;;;8.15;5.15;;;33.00;52.70;;;33.81;34.16;94659.19;5045154;28;20278;-61
2023/06/09 10:11:17;;;;;;;14.48;5.20;;;33.10;52.70;;;33.87;32.95;94655.28;5049134;28;20221;-68
2023/06/09 10:13:44;;;;;;;7.90;5.43;;;33.10;52.10;;;33.92;34.26;94653.28;5047829;28;20227;-68
2023/06/09 10:16:13;;;;;;;12.75;4.75;;;33.20;52.40;;;34.01;33.02;94656.16;5057857;28;20226;-61
2023/06/09 10:18:41;;;;;;;12.75;4.70;;;33.30;51.80;;;34.01;33.00;94649.91;5054718;28;20257;-60